Time;durP1;ratioP1;P1;durP2;ratioP2;P2;SDS_P1;SDS_P2;PMS_P1;PMS_P2;Temp;Humidity;BMP_temperature;BMP_pressure;BME280_temperature;BME280_humidity;BME280_pressure;Samples;Min_cycle;Max_cycle;Signal;HPM_P1;HPM_P2
2022/02/28 00:00:00;;;;;;;;;;;18.70;99.90;;;;;;5037631;28;19935;-61
2022/02/28 00:02:27;;;;;;;;;;;18.70;99.90;;;;;;5038063;28;19947;-63
2022/02/28 00:04:55;;;;;;;;;;;18.70;99.90;;;;;;5030742;28;20328;-61
2022/02/28 00:07:22;;;;;;;;;;;18.70;99.90;;;;;;5035030;28;20296;-61
2022/02/28 00:09:49;;;;;;;;;;;18.60;99.90;;;;;;5039102;28;19929;-61
2022/02/28 00:12:16;;;;;;;;;;;18.60;99.90;;;;;;5047427;28;19940;-61
2022/02/28 00:14:43;;;;;;;;;;;18.60;99.90;;;;;;5045534;28;20308;-63
2022/02/28 00:17:10;;;;;;;;;;;18.50;99.90;;;;;;5045292;28;19944;-61
2022/02/28 00:19:37;;;;;;;;;;;18.50;99.90;;;;;;5029572;28;20301;-62
2022/02/28 00:22:04;;;;;;;;;;;18.50;99.90;;;;;;5038129;28;19925;-61
2022/02/28 00:24:32;;;;;;;;;;;18.50;99.90;;;;;;5039266;28;19945;-62
2022/02/28 00:26:59;;;;;;;;;;;18.50;99.90;;;;;;5038417;28;19925;-60
2022/02/28 00:29:26;;;;;;;;;;;18.50;99.90;;;;;;5029950;28;19937;-62
2022/02/28 00:31:53;;;;;;;;;;;18.50;99.90;;;;;;5038248;28;20429;-60
2022/02/28 00:34:21;;;;;;;;;;;18.50;99.90;;;;;;5043243;28;19928;-63
2022/02/28 00:36:48;;;;;;;;;;;18.50;99.90;;;;;;5047165;28;20597;-64
2022/02/28 00:39:15;;;;;;;;;;;18.40;99.90;;;;;;5053672;28;19934;-60
2022/02/28 00:41:42;;;;;;;;;;;18.40;99.90;;;;;;5035572;28;19929;-62
2022/02/28 00:44:09;;;;;;;;;;;18.40;99.90;;;;;;5042325;28;19952;-63
2022/02/28 00:46:40;;;;;;;;;;;18.40;99.90;;;;;;5044202;28;19932;-61
2022/02/28 00:49:08;;;;;;;;;;;18.40;99.90;;;;;;5035553;28;19933;-63
2022/02/28 00:51:35;;;;;;;;;;;18.40;99.90;;;;;;5042324;28;19924;-63
2022/02/28 00:54:02;;;;;;;;;;;18.40;99.90;;;;;;5042842;28;20392;-61
2022/02/28 00:56:29;;;;;;;;;;;18.40;99.90;;;;;;5042835;28;20407;-64
2022/02/28 00:58:56;;;;;;;;;;;18.40;99.90;;;;;;5031458;28;19929;-62
2022/02/28 01:01:24;;;;;;;;;;;18.40;99.90;;;;;;5035196;28;20359;-63
2022/02/28 01:03:51;;;;;;;;;;;18.40;99.90;;;;;;5039644;28;20577;-64
2022/02/28 01:06:18;;;;;;;;;;;18.40;99.90;;;;;;5047456;28;19940;-61
2022/02/28 01:08:45;;;;;;;;;;;18.40;99.90;;;;;;5034466;28;20400;-62
2022/02/28 01:11:12;;;;;;;;;;;18.40;99.90;;;;;;5032462;28;19928;-64
2022/02/28 01:13:39;;;;;;;;;;;18.40;99.90;;;;;;5043995;28;19936;-63
2022/02/28 01:16:07;;;;;;;;;;;18.40;99.90;;;;;;5040742;28;19951;-62
2022/02/28 01:18:34;;;;;;;;;;;18.40;99.90;;;;;;5077883;28;19928;-61
2022/02/28 01:21:01;;;;;;;;;;;18.40;99.90;;;;;;5036311;28;19929;-62
2022/02/28 01:23:28;;;;;;;;;;;18.40;99.90;;;;;;5029519;28;19940;-63
2022/02/28 01:25:55;;;;;;;;;;;18.40;99.90;;;;;;5042216;28;19929;-62
2022/02/28 01:28:22;;;;;;;;;;;18.30;99.90;;;;;;5074501;28;19935;-64
2022/02/28 01:30:51;;;;;;;;;;;18.30;99.90;;;;;;5054389;28;19929;-61
2022/02/28 01:33:18;;;;;;;;;;;18.40;99.90;;;;;;5048683;28;20371;-64
2022/02/28 01:35:45;;;;;;;;;;;18.40;99.90;;;;;;5070834;28;19951;-60
2022/02/28 01:38:12;;;;;;;;;;;18.30;99.90;;;;;;5045461;28;19929;-59
2022/02/28 01:40:39;;;;;;;;;;;18.30;99.90;;;;;;5027588;28;19933;-61
2022/02/28 01:43:07;;;;;;;;;;;18.30;99.90;;;;;;5045323;28;19932;-63
2022/02/28 01:45:34;;;;;;;;;;;18.30;99.90;;;;;;5042152;28;19929;-63
2022/02/28 01:48:01;;;;;;;;;;;18.30;99.90;;;;;;5044591;28;20379;-64
2022/02/28 01:50:29;;;;;;;;;;;18.40;99.90;;;;;;5040104;28;19952;-65
2022/02/28 01:52:58;;;;;;;;;;;18.30;99.90;;;;;;5065069;28;19933;-63
2022/02/28 01:55:25;;;;;;;;;;;18.30;99.90;;;;;;5044585;28;19952;-64
2022/02/28 01:57:53;;;;;;;;;;;18.20;99.90;;;;;;5047510;28;19935;-62
2022/02/28 02:00:24;;;;;;;;;;;18.20;99.90;;;;;;5047413;28;20395;-63
2022/02/28 02:02:52;;;;;;;;;;;18.20;99.90;;;;;;5042882;28;19929;-62
2022/02/28 02:05:20;;;;;;;;;;;18.10;99.90;;;;;;5064226;28;20311;-63
2022/02/28 02:07:47;;;;;;;;;;;18.10;99.90;;;;;;5043404;28;19929;-62
2022/02/28 02:10:15;;;;;;;;;;;18.10;99.90;;;;;;5029291;28;19932;-63
2022/02/28 02:12:42;;;;;;;;;;;18.00;99.90;;;;;;5042626;28;20002;-62
2022/02/28 02:15:13;;;;;;;;;;;18.00;99.90;;;;;;5038636;28;19933;-64
2022/02/28 02:17:42;;;;;;;;;;;18.00;99.90;;;;;;5033283;28;20293;-63
2022/02/28 02:20:18;;;;;;;;;;;18.00;99.90;;;;;;5050864;28;19933;-63
2022/02/28 02:22:58;;;;;;;;;;;18.00;99.90;;;;;;5031707;28;20032;-65
2022/02/28 02:25:26;;;;;;;;;;;18.00;99.90;;;;;;5038014;28;19944;-63
2022/02/28 02:27:53;;;;;;;;;;;18.00;99.90;;;;;;5066677;28;19928;-62
2022/02/28 02:30:21;;;;;;;;;;;18.00;99.90;;;;;;5038369;28;19925;-61
2022/02/28 02:32:49;;;;;;;;;;;18.00;99.90;;;;;;5077722;28;19933;-62
2022/02/28 02:35:16;;;;;;;;;;;17.90;99.90;;;;;;5045681;28;19936;-63
2022/02/28 02:37:44;;;;;;;;;;;18.00;99.90;;;;;;5043996;28;19929;-63
2022/02/28 02:40:12;;;;;;;;;;;17.90;99.90;;;;;;5049366;28;20383;-61
2022/02/28 02:42:40;;;;;;;;;;;18.00;99.90;;;;;;5049007;28;19929;-65
2022/02/28 02:45:07;;;;;;;;;;;18.00;99.90;;;;;;5043907;28;19929;-62
2022/02/28 02:47:35;;;;;;;;;;;18.00;99.90;;;;;;5047512;28;19931;-62
2022/02/28 02:50:10;;;;;;;;;;;18.00;99.90;;;;;;5048198;28;19929;-62
2022/02/28 02:52:37;;;;;;;;;;;18.00;99.90;;;;;;5072371;28;20005;-64
2022/02/28 02:55:05;;;;;;;;;;;18.00;99.90;;;;;;5043453;28;19925;-63
2022/02/28 02:57:33;;;;;;;;;;;18.00;99.90;;;;;;5044921;28;19936;-63
2022/02/28 03:00:06;;;;;;;;;;;18.00;99.90;;;;;;5043955;28;19929;-63
2022/02/28 03:02:44;;;;;;;;;;;18.00;99.90;;;;;;5073863;28;20265;-64
2022/02/28 03:05:11;;;;;;;;;;;18.00;99.90;;;;;;5046424;28;19938;-62
2022/02/28 03:07:38;;;;;;;;;;;18.00;99.90;;;;;;5034274;28;19936;-62
2022/02/28 03:10:06;;;;;;;;;;;18.00;99.90;;;;;;5037751;28;19928;-61
2022/02/28 03:12:33;;;;;;;;;;;18.00;99.90;;;;;;5046689;28;20405;-63
2022/02/28 03:15:02;;;;;;;;;;;18.00;99.90;;;;;;5048293;28;20363;-64
2022/02/28 03:17:29;;;;;;;;;;;18.00;99.90;;;;;;5046334;28;20400;-62
2022/02/28 03:19:56;;;;;;;;;;;18.00;99.90;;;;;;5042829;28;19925;-63
2022/02/28 03:22:24;;;;;;;;;;;17.90;99.90;;;;;;5034297;28;19929;-63
2022/02/28 03:24:51;;;;;;;;;;;17.90;99.90;;;;;;5070609;28;19929;-64
2022/02/28 03:27:18;;;;;;;;;;;17.80;99.90;;;;;;5047639;28;19936;-62
2022/02/28 03:29:48;;;;;;;;;;;17.90;99.90;;;;;;5072710;28;19936;-64
2022/02/28 03:32:15;;;;;;;;;;;17.80;99.90;;;;;;5047841;28;19948;-61
2022/02/28 03:34:42;;;;;;;;;;;17.80;99.90;;;;;;5044594;28;19935;-62
2022/02/28 03:37:10;;;;;;;;;;;17.80;99.90;;;;;;5035211;28;20179;-61
2022/02/28 03:39:37;;;;;;;;;;;17.70;99.90;;;;;;5081492;28;19928;-62
2022/02/28 03:42:06;;;;;;;;;;;17.80;99.90;;;;;;5043093;28;20452;-60
2022/02/28 03:44:34;;;;;;;;;;;17.70;99.90;;;;;;5071264;28;19951;-60
2022/02/28 03:47:06;;;;;;;;;;;17.70;99.90;;;;;;5040901;28;19929;-61
2022/02/28 03:49:52;;;;;;;;;;;17.70;99.90;;;;;;5041701;28;19935;-60
2022/02/28 03:52:30;;;;;;;;;;;17.70;99.90;;;;;;5078519;28;19944;-62
2022/02/28 03:55:08;;;;;;;;;;;17.70;99.90;;;;;;5043450;28;19933;-64
2022/02/28 03:57:36;;;;;;;;;;;17.70;99.90;;;;;;5041142;28;19928;-64
2022/02/28 04:00:06;;;;;;;;;;;17.70;99.90;;;;;;5057438;28;19935;-63
2022/02/28 04:02:39;;;;;;;;;;;17.70;99.90;;;;;;5048551;28;20392;-61
2022/02/28 04:05:07;;;;;;;;;;;17.70;99.90;;;;;;5027064;28;19936;-62
2022/02/28 04:07:38;;;;;;;;;;;17.70;99.90;;;;;;5047787;28;20003;-64
2022/02/28 04:10:06;;;;;;;;;;;17.70;99.90;;;;;;5041293;28;19928;-63
2022/02/28 04:12:35;;;;;;;;;;;17.70;99.90;;;;;;5035326;28;19947;-64
2022/02/28 04:15:03;;;;;;;;;;;17.70;99.90;;;;;;5039084;28;20411;-63
2022/02/28 04:17:30;;;;;;;;;;;17.60;99.90;;;;;;5043950;28;19933;-62
2022/02/28 04:20:09;;;;;;;;;;;17.70;99.90;;;;;;5045499;28;20392;-62
2022/02/28 04:22:38;;;;;;;;;;;17.60;99.90;;;;;;5043277;28;19935;-62
2022/02/28 04:25:07;;;;;;;;;;;17.60;99.90;;;;;;5046458;28;19928;-63
2022/02/28 04:27:34;;;;;;;;;;;17.70;99.90;;;;;;5047194;28;19935;-62
2022/02/28 04:30:05;;;;;;;;;;;17.70;99.90;;;;;;5043433;28;19939;-62
2022/02/28 04:32:32;;;;;;;;;;;17.60;99.90;;;;;;5033667;28;19929;-61
2022/02/28 04:35:03;;;;;;;;;;;17.60;99.90;;;;;;5066442;28;20332;-66
2022/02/28 04:37:33;;;;;;;;;;;17.60;99.90;;;;;;5046119;28;19936;-65
2022/02/28 04:40:01;;;;;;;;;;;17.60;99.90;;;;;;5049857;28;19929;-64
2022/02/28 04:42:32;;;;;;;;;;;17.60;99.90;;;;;;5045135;28;19925;-64
2022/02/28 04:44:59;;;;;;;;;;;17.60;99.90;;;;;;5047193;28;19926;-66
2022/02/28 04:47:26;;;;;;;;;;;17.60;99.90;;;;;;5045583;28;19929;-63
2022/02/28 04:50:08;;;;;;;;;;;17.60;99.90;;;;;;5046550;28;19928;-62
2022/02/28 04:52:36;;;;;;;;;;;17.60;99.90;;;;;;5042356;28;19929;-63
2022/02/28 04:55:04;;;;;;;;;;;17.70;99.90;;;;;;5042884;28;19940;-64
2022/02/28 04:57:39;;;;;;;;;;;17.70;99.90;;;;;;5033183;28;19929;-66
2022/02/28 05:00:08;;;;;;;;;;;17.80;99.90;;;;;;5040080;28;19929;-62
2022/02/28 05:02:37;;;;;;;;;;;18.00;99.90;;;;;;5043177;28;19936;-65
2022/02/28 05:05:18;;;;;;;;;;;18.20;99.90;;;;;;5043493;28;19928;-63
2022/02/28 05:07:46;;;;;;;;;;;18.40;99.90;;;;;;5039710;28;19929;-61
2022/02/28 05:10:13;;;;;;;;;;;18.50;99.90;;;;;;5047691;28;19940;-65
2022/02/28 05:12:41;;;;;;;;;;;18.70;99.90;;;;;;5049552;28;20281;-64
2022/02/28 05:15:10;;;;;;;;;;;18.70;99.90;;;;;;5075614;28;20411;-60
2022/02/28 05:17:37;;;;;;;;;;;18.90;99.90;;;;;;5038975;28;19929;-62
2022/02/28 05:20:05;;;;;;;;;;;19.00;99.90;;;;;;5078040;28;19925;-63
2022/02/28 05:22:35;;;;;;;;;;;19.10;99.90;;;;;;5048500;28;20410;-63
2022/02/28 05:25:04;;;;;;;;;;;19.30;99.90;;;;;;5045280;28;20247;-65
2022/02/28 05:27:36;;;;;;;;;;;19.40;99.90;;;;;;5047824;28;20351;-64
2022/02/28 05:30:04;;;;;;;;;;;19.50;99.90;;;;;;5056107;28;19941;-64
2022/02/28 05:32:33;;;;;;;;;;;19.70;99.90;;;;;;5050523;28;20412;-59
2022/02/28 05:35:23;;;;;;;;;;;19.80;99.90;;;;;;5038616;28;19933;-64
2022/02/28 05:38:19;;;;;;;;;;;20.00;99.90;;;;;;5033111;28;19929;-64
2022/02/28 05:40:51;;;;;;;;;;;20.20;99.90;;;;;;5074750;28;20397;-64
2022/02/28 05:43:26;;;;;;;;;;;20.40;99.90;;;;;;5047741;28;20312;-64
2022/02/28 05:45:55;;;;;;;;;;;20.60;99.90;;;;;;5056077;28;19928;-63
2022/02/28 05:48:35;;;;;;;;;;;20.70;99.90;;;;;;5044800;28;19939;-67
2022/02/28 05:51:03;;;;;;;;;;;20.80;99.90;;;;;;5044130;28;20610;-62
2022/02/28 05:53:31;;;;;;;;;;;20.80;99.90;;;;;;5048675;28;19932;-65
2022/02/28 05:55:58;;;;;;;;;;;20.90;99.90;;;;;;5044289;28;19935;-64
2022/02/28 05:58:25;;;;;;;;;;;21.00;99.90;;;;;;5046278;28;20586;-66
2022/02/28 06:00:52;;;;;;;;;;;21.00;99.90;;;;;;5044512;28;19925;-64
2022/02/28 06:03:20;;;;;;;;;;;21.10;99.90;;;;;;5042500;28;19932;-65
2022/02/28 06:05:47;;;;;;;;;;;21.10;99.90;;;;;;5046905;28;20692;-63
2022/02/28 06:08:14;;;;;;;;;;;21.00;99.90;;;;;;5045147;28;19933;-62
2022/02/28 06:10:42;;;;;;;;;;;20.90;99.90;;;;;;5044957;28;19936;-62
2022/02/28 06:13:09;;;;;;;;;;;20.90;99.90;;;;;;5043482;28;19929;-64
2022/02/28 06:15:41;;;;;;;;;;;20.90;99.90;;;;;;5047634;28;19929;-61
2022/02/28 06:18:09;;;;;;;;;;;20.90;99.90;;;;;;5048354;28;19935;-61
2022/02/28 06:20:37;;;;;;;;;;;20.90;99.90;;;;;;5040794;28;20798;-63
2022/02/28 06:23:05;;;;;;;;;;;20.90;99.90;;;;;;5056206;28;19929;-63
2022/02/28 06:25:32;;;;;;;;;;;21.00;99.90;;;;;;5054683;28;20258;-62
2022/02/28 06:27:59;;;;;;;;;;;21.00;99.90;;;;;;5049883;28;19932;-62
2022/02/28 06:30:26;;;;;;;;;;;21.10;99.90;;;;;;5053867;28;19928;-63
2022/02/28 06:32:53;;;;;;;;;;;21.00;99.90;;;;;;5044511;28;19928;-67
2022/02/28 06:35:20;;;;;;;;;;;21.00;99.90;;;;;;5045415;28;19929;-64
2022/02/28 06:37:48;;;;;;;;;;;21.00;99.90;;;;;;5065779;28;19933;-67
2022/02/28 06:40:15;;;;;;;;;;;20.90;99.90;;;;;;5041179;28;19929;-61
2022/02/28 06:42:42;;;;;;;;;;;20.80;99.90;;;;;;5047798;28;20406;-61
2022/02/28 06:45:09;;;;;;;;;;;20.80;99.90;;;;;;5045305;28;19933;-60
2022/02/28 06:47:37;;;;;;;;;;;20.70;99.90;;;;;;5046787;28;19936;-62
2022/02/28 06:50:05;;;;;;;;;;;20.70;99.90;;;;;;5045631;28;19940;-61
2022/02/28 06:52:32;;;;;;;;;;;20.60;99.90;;;;;;5045659;28;19936;-62
2022/02/28 06:54:59;;;;;;;;;;;20.60;99.90;;;;;;5046743;28;19928;-63
2022/02/28 06:57:26;;;;;;;;;;;20.50;99.90;;;;;;5041814;28;19947;-60
2022/02/28 06:59:53;;;;;;;;;;;20.50;99.90;;;;;;5044374;28;19929;-61
2022/02/28 07:02:20;;;;;;;;;;;20.40;99.90;;;;;;5046882;28;19928;-62
2022/02/28 07:05:02;;;;;;;;;;;20.40;99.90;;;;;;5049648;28;19929;-64
2022/02/28 07:07:30;;;;;;;;;;;20.30;99.90;;;;;;5045173;28;19928;-61
2022/02/28 07:09:57;;;;;;;;;;;20.30;99.90;;;;;;5051878;28;19929;-63
2022/02/28 07:12:25;;;;;;;;;;;20.20;99.90;;;;;;5049227;28;19929;-63
2022/02/28 07:14:52;;;;;;;;;;;20.20;99.90;;;;;;5050251;28;20423;-63
2022/02/28 07:17:19;;;;;;;;;;;20.20;99.90;;;;;;5046302;28;19936;-62
2022/02/28 07:19:46;;;;;;;;;;;20.20;99.90;;;;;;5045947;28;20293;-61
2022/02/28 07:22:13;;;;;;;;;;;20.20;99.90;;;;;;5047215;28;19928;-65
2022/02/28 07:24:40;;;;;;;;;;;20.30;99.90;;;;;;5045960;28;19937;-62
2022/02/28 07:27:08;;;;;;;;;;;20.40;99.90;;;;;;5047856;28;20397;-65
2022/02/28 07:29:35;;;;;;;;;;;20.50;99.90;;;;;;5056889;28;19928;-59
2022/02/28 07:32:02;;;;;;;;;;;20.60;99.90;;;;;;5054708;28;20442;-60
2022/02/28 07:34:30;;;;;;;;;;;20.70;99.90;;;;;;5056360;28;20513;-63
2022/02/28 07:36:57;;;;;;;;;;;20.80;99.90;;;;;;5059958;28;19940;-64
2022/02/28 07:39:24;;;;;;;;;;;20.80;99.90;;;;;;5071847;28;19931;-64
2022/02/28 07:41:52;;;;;;;;;;;20.90;99.90;;;;;;5070701;28;19935;-64
2022/02/28 07:44:21;;;;;;;;;;;20.90;99.90;;;;;;5063627;28;19925;-62
2022/02/28 07:46:49;;;;;;;;;;;21.10;99.90;;;;;;5065907;28;19999;-60
2022/02/28 07:49:16;;;;;;;;;;;21.10;99.90;;;;;;5057045;28;19951;-63
2022/02/28 07:51:43;;;;;;;;;;;21.10;99.90;;;;;;5055278;28;19929;-65
2022/02/28 07:54:10;;;;;;;;;;;21.10;99.90;;;;;;5052536;28;19929;-62
2022/02/28 07:56:38;;;;;;;;;;;21.10;99.90;;;;;;5053958;28;19928;-64
2022/02/28 07:59:06;;;;;;;;;;;21.10;99.90;;;;;;5045077;28;19935;-63
2022/02/28 08:01:33;;;;;;;;;;;21.00;99.90;;;;;;5054570;28;20293;-62
2022/02/28 08:04:00;;;;;;;;;;;21.00;99.90;;;;;;5076113;28;19935;-59
2022/02/28 08:06:28;;;;;;;;;;;20.90;99.90;;;;;;5050899;28;19933;-61
2022/02/28 08:08:55;;;;;;;;;;;20.90;99.90;;;;;;5045273;28;19948;-60
2022/02/28 08:11:22;;;;;;;;;;;20.90;99.90;;;;;;5045665;28;19933;-57
2022/02/28 08:13:49;;;;;;;;;;;20.80;99.90;;;;;;5044403;28;19933;-56
2022/02/28 08:16:17;;;;;;;;;;;20.80;99.90;;;;;;5050420;28;19924;-66
2022/02/28 08:18:45;;;;;;;;;;;20.70;99.90;;;;;;5052545;28;19925;-63
2022/02/28 08:21:12;;;;;;;;;;;20.70;99.90;;;;;;5047934;28;20152;-63
2022/02/28 08:23:39;;;;;;;;;;;20.70;99.90;;;;;;5039052;28;19924;-63
2022/02/28 08:26:08;;;;;;;;;;;20.70;99.90;;;;;;5046837;28;19940;-62
2022/02/28 08:28:35;;;;;;;;;;;20.60;99.90;;;;;;5046379;28;19948;-63
2022/02/28 08:31:05;;;;;;;;;;;20.60;99.90;;;;;;5045277;28;19933;-63
2022/02/28 08:33:32;;;;;;;;;;;20.60;99.90;;;;;;5053281;28;20307;-62
2022/02/28 08:36:00;;;;;;;;;;;20.60;99.90;;;;;;5049454;28;19925;-60
2022/02/28 08:38:27;;;;;;;;;;;20.50;99.90;;;;;;5046826;28;19933;-64
2022/02/28 08:40:54;;;;;;;;;;;20.40;99.90;;;;;;5044465;28;19951;-67
2022/02/28 08:43:22;;;;;;;;;;;20.40;99.90;;;;;;5051173;28;19936;-62
2022/02/28 08:45:49;;;;;;;;;;;20.30;99.90;;;;;;5046234;28;20817;-62
2022/02/28 08:48:20;;;;;;;;;;;20.30;99.90;;;;;;5048338;28;20388;-62
2022/02/28 08:50:47;;;;;;;;;;;20.30;99.90;;;;;;5051947;28;19929;-62
2022/02/28 08:53:14;;;;;;;;;;;20.30;99.90;;;;;;5051582;28;19936;-63
2022/02/28 08:55:42;;;;;;;;;;;20.40;99.90;;;;;;5047930;28;19940;-64
2022/02/28 08:58:09;;;;;;;;;;;20.50;99.90;;;;;;5053867;28;19940;-60
2022/02/28 09:00:37;;;;;;;;;;;20.60;99.90;;;;;;5053126;28;20050;-63
2022/02/28 09:03:06;;;;;;;;;;;20.70;99.90;;;;;;5052433;28;19932;-61
2022/02/28 09:05:35;;;;;;;;;;;20.80;99.90;;;;;;5045322;28;19929;-62
2022/02/28 09:08:02;;;;;;;;;;;20.90;99.90;;;;;;5044165;28;19925;-63
2022/02/28 09:10:31;;;;;;;;;;;21.00;99.90;;;;;;5051199;28;19929;-60
2022/02/28 09:13:06;;;;;;;;;;;21.10;99.90;;;;;;5047292;28;19928;-62
2022/02/28 09:15:35;;;;;;;;;;;21.10;99.90;;;;;;5047806;28;19944;-61
2022/02/28 09:18:03;;;;;;;;;;;21.20;99.90;;;;;;5046378;28;19932;-60
2022/02/28 09:20:31;;;;;;;;;;;21.20;99.90;;;;;;5044033;28;20051;-59
2022/02/28 09:23:00;;;;;;;;;;;21.20;99.90;;;;;;5044734;28;19944;-59
2022/02/28 09:25:28;;;;;;;;;;;21.20;99.90;;;;;;5047259;28;19928;-61
2022/02/28 09:27:55;;;;;;;;;;;21.20;99.90;;;;;;5048866;28;19929;-60
2022/02/28 09:30:22;;;;;;;;;;;21.20;99.90;;;;;;5048246;28;19940;-59
2022/02/28 09:32:55;;;;;;;;;;;21.20;99.90;;;;;;5048113;28;20404;-57
2022/02/28 09:35:24;;;;;;;;;;;21.20;99.90;;;;;;5047488;28;20422;-61
2022/02/28 09:37:52;;;;;;;;;;;21.10;99.90;;;;;;5046773;28;20616;-60
2022/02/28 09:40:22;;;;;;;;;;;21.10;99.90;;;;;;5050205;28;19929;-60
2022/02/28 09:43:09;;;;;;;;;;;21.10;99.90;;;;;;5051168;28;19939;-60
2022/02/28 09:46:03;;;;;;;;;;;21.00;99.90;;;;;;5053319;28;20012;-62
2022/02/28 09:48:56;;;;;;;;;;;21.00;99.90;;;;;;5044685;28;19962;-63
2022/02/28 09:51:50;;;;;;;;;;;20.90;99.90;;;;;;5026766;28;19933;-61
2022/02/28 09:54:36;;;;;;;;;;;20.90;99.90;;;;;;5047480;28;20027;-60
2022/02/28 09:57:22;;;;;;;;;;;20.90;99.90;;;;;;5055540;28;19935;-62
2022/02/28 10:00:02;;;;;;;;;;;20.80;99.90;;;;;;5047764;28;20401;-63
2022/02/28 10:02:40;;;;;;;;;;;20.70;99.90;;;;;;5052307;28;19943;-61
2022/02/28 10:05:09;;;;;;;;;;;20.70;99.90;;;;;;5042467;28;19936;-59
2022/02/28 10:07:56;;;;;;;;;;;20.70;99.90;;;;;;5042863;28;19955;-59
2022/02/28 10:10:25;;;;;;;;;;;20.70;99.90;;;;;;5044904;28;19939;-61
2022/02/28 10:12:53;;;;;;;;;;;20.60;99.90;;;;;;5046659;28;19933;-61
2022/02/28 10:15:22;;;;;;;;;;;20.60;99.90;;;;;;5045005;28;19929;-60
2022/02/28 10:17:51;;;;;;;;;;;20.50;99.90;;;;;;5075086;28;19936;-61
2022/02/28 10:20:28;;;;;;;;;;;20.50;99.90;;;;;;5048360;28;19944;-58
2022/02/28 10:22:57;;;;;;;;;;;20.40;99.90;;;;;;5044468;28;19932;-60
2022/02/28 10:25:27;;;;;;;;;;;20.40;99.90;;;;;;5047914;28;20659;-60
2022/02/28 10:28:06;;;;;;;;;;;20.20;99.90;;;;;;5042675;28;19929;-59
2022/02/28 10:31:03;;;;;;;;;;;20.10;99.90;;;;;;5022075;28;19933;-59
2022/02/28 10:33:55;;;;;;;;;;;20.30;99.90;;;;;;5045289;28;19924;-58
2022/02/28 10:37:07;;;;;;;;;;;20.50;99.90;;;;;;5051887;28;19940;-58
2022/02/28 10:39:37;;;;;;;;;;;20.60;99.90;;;;;;5050580;28;19929;-62
2022/02/28 10:42:08;;;;;;;;;;;20.90;99.90;;;;;;5056868;28;19937;-63
2022/02/28 10:44:36;;;;;;;;;;;21.00;99.90;;;;;;5044613;28;20324;-60
2022/02/28 10:47:05;;;;;;;;;;;21.10;99.90;;;;;;5045585;28;19929;-63
2022/02/28 10:49:33;;;;;;;;;;;21.20;99.90;;;;;;5045253;28;19925;-61
2022/02/28 10:52:02;;;;;;;;;;;21.30;99.90;;;;;;5044859;28;19932;-60
2022/02/28 10:54:31;;;;;;;;;;;21.30;99.90;;;;;;5049639;28;19925;-61
2022/02/28 10:56:59;;;;;;;;;;;21.30;99.90;;;;;;5055394;28;19951;-66
2022/02/28 10:59:27;;;;;;;;;;;21.30;99.90;;;;;;5040184;28;19933;-64
2022/02/28 11:01:55;;;;;;;;;;;21.20;99.90;;;;;;5054146;28;19935;-64
2022/02/28 11:04:29;;;;;;;;;;;21.10;99.90;;;;;;5054260;28;19933;-59
2022/02/28 11:06:57;;;;;;;;;;;21.00;98.30;;;;;;5052972;28;19955;-65
2022/02/28 11:09:30;;;;;;;;;;;21.00;98.40;;;;;;5052060;28;19925;-63
2022/02/28 11:12:15;;;;;;;;;;;21.00;99.40;;;;;;5050624;28;19943;-63
2022/02/28 11:14:47;;;;;;;;;;;20.90;99.90;;;;;;5049167;28;19928;-66
2022/02/28 11:17:16;;;;;;;;;;;20.90;99.90;;;;;;5054063;28;19935;-63
2022/02/28 11:19:44;;;;;;;;;;;20.90;99.90;;;;;;5037719;28;19932;-65
2022/02/28 11:22:12;;;;;;;;;;;20.90;99.90;;;;;;5043601;28;20392;-65
2022/02/28 11:24:40;;;;;;;;;;;20.90;99.90;;;;;;5048072;28;19936;-67
2022/02/28 11:27:07;;;;;;;;;;;20.90;99.90;;;;;;5050442;28;20417;-66
2022/02/28 11:29:34;;;;;;;;;;;20.90;99.90;;;;;;5039476;28;19932;-66
2022/02/28 11:32:02;;;;;;;;;;;20.90;99.90;;;;;;5045523;28;19933;-66
2022/02/28 11:34:29;;;;;;;;;;;20.90;99.90;;;;;;5046725;28;19925;-65
2022/02/28 11:36:58;;;;;;;;;;;20.80;99.90;;;;;;5047792;28;19933;-62
2022/02/28 11:39:34;;;;;;;;;;;20.80;99.90;;;;;;5044148;28;19983;-65
2022/02/28 11:42:03;;;;;;;;;;;20.70;99.90;;;;;;5050575;28;19928;-65
2022/02/28 11:44:51;;;;;;;;;;;20.80;99.90;;;;;;5046888;28;20006;-64
2022/02/28 11:47:18;;;;;;;;;;;20.70;99.90;;;;;;5045499;28;20351;-65
2022/02/28 11:49:50;;;;;;;;;;;20.60;99.90;;;;;;5041721;28;20569;-63
2022/02/28 11:52:37;;;;;;;;;;;20.60;99.90;;;;;;5046354;28;19929;-65
2022/02/28 11:55:11;;;;;;;;;;;20.70;99.90;;;;;;5073175;28;20415;-64
2022/02/28 11:57:58;;;;;;;;;;;20.60;99.90;;;;;;5044241;28;19936;-67
2022/02/28 12:00:45;;;;;;;;;;;20.60;99.90;;;;;;5044914;28;20663;-63
2022/02/28 12:03:21;;;;;;;;;;;20.60;99.90;;;;;;5043561;28;19925;-65
2022/02/28 12:05:48;;;;;;;;;;;20.60;99.90;;;;;;5044838;28;19929;-66
2022/02/28 12:08:16;;;;;;;;;;;20.70;99.90;;;;;;5044810;28;20289;-65
2022/02/28 12:10:56;;;;;;;;;;;20.60;99.90;;;;;;5046877;28;19932;-67
2022/02/28 12:13:32;;;;;;;;;;;20.60;99.90;;;;;;5049989;28;19944;-64
2022/02/28 12:16:07;;;;;;;;;;;20.70;99.90;;;;;;5047272;28;19936;-63
2022/02/28 12:18:34;;;;;;;;;;;20.80;99.90;;;;;;5041609;28;20392;-65
2022/02/28 12:21:06;;;;;;;;;;;20.90;99.90;;;;;;5049855;28;20139;-64
2022/02/28 12:23:44;;;;;;;;;;;21.00;99.90;;;;;;5044005;28;19940;-61
2022/02/28 12:26:12;;;;;;;;;;;21.10;99.90;;;;;;5047613;28;20176;-64
2022/02/28 12:28:40;;;;;;;;;;;21.30;99.90;;;;;;5049579;28;20845;-58
2022/02/28 12:31:12;;;;;;;;;;;21.30;99.90;;;;;;5048844;28;19973;-62
2022/02/28 12:33:42;;;;;;;;;;;21.40;99.90;;;;;;5048465;28;19940;-63
2022/02/28 12:36:09;;;;;;;;;;;21.30;99.90;;;;;;5047313;28;19936;-61
2022/02/28 12:38:41;;;;;;;;;;;21.30;99.90;;;;;;5043397;28;20621;-62
2022/02/28 12:41:10;;;;;;;;;;;21.30;99.90;;;;;;5044370;28;19939;-62
2022/02/28 12:43:37;;;;;;;;;;;21.30;99.90;;;;;;5047082;28;19936;-66
2022/02/28 12:46:07;;;;;;;;;;;21.20;99.90;;;;;;5050812;28;20387;-63
2022/02/28 12:48:36;;;;;;;;;;;21.20;99.90;;;;;;5044360;28;20395;-62
2022/02/28 12:51:05;;;;;;;;;;;21.20;99.90;;;;;;5077907;28;20032;-64
2022/02/28 12:53:33;;;;;;;;;;;21.20;99.90;;;;;;5050867;28;19963;-65
2022/02/28 12:56:05;;;;;;;;;;;21.30;99.90;;;;;;5044346;28;19929;-63
2022/02/28 12:58:34;;;;;;;;;;;21.20;99.90;;;;;;5042424;28;20466;-62
2022/02/28 13:01:13;;;;;;;;;;;21.20;99.90;;;;;;5049886;28;20294;-67
2022/02/28 13:03:42;;;;;;;;;;;21.20;99.90;;;;;;5051594;28;20415;-64
2022/02/28 13:06:10;;;;;;;;;;;21.20;99.90;;;;;;5048320;28;20028;-62
2022/02/28 13:08:38;;;;;;;;;;;21.10;99.90;;;;;;5037204;28;19936;-64
2022/02/28 13:11:08;;;;;;;;;;;21.10;99.90;;;;;;5043054;28;19940;-65
2022/02/28 13:13:36;;;;;;;;;;;21.10;99.90;;;;;;5045915;28;19929;-61
2022/02/28 13:16:04;;;;;;;;;;;21.20;99.90;;;;;;5047178;28;19929;-68
2022/02/28 13:18:31;;;;;;;;;;;21.10;99.90;;;;;;5047654;28;20719;-64
2022/02/28 13:20:59;;;;;;;;;;;21.10;99.90;;;;;;5051485;28;19933;-65
2022/02/28 13:23:46;;;;;;;;;;;21.10;99.90;;;;;;5047320;28;19956;-67
2022/02/28 13:26:14;;;;;;;;;;;21.10;99.90;;;;;;5047071;28;20581;-65
2022/02/28 13:28:45;;;;;;;;;;;21.20;99.90;;;;;;5043875;28;19929;-62
2022/02/28 13:31:14;;;;;;;;;;;21.10;99.90;;;;;;5046193;28;20415;-62
2022/02/28 13:33:42;;;;;;;;;;;21.10;99.90;;;;;;5046029;28;19933;-59
2022/02/28 13:36:09;;;;;;;;;;;21.10;99.90;;;;;;5042861;28;19928;-56
2022/02/28 13:38:37;;;;;;;;;;;21.10;99.90;;;;;;5039049;28;19936;-58
2022/02/28 13:41:09;;;;;;;;;;;21.10;99.90;;;;;;5041617;28;20395;-60
2022/02/28 13:43:36;;;;;;;;;;;21.10;99.90;;;;;;5040099;28;20003;-57
2022/02/28 13:46:08;;;;;;;;;;;21.10;99.90;;;;;;5044713;28;20298;-61
2022/02/28 13:48:35;;;;;;;;;;;21.10;99.90;;;;;;5038761;28;19932;-60
2022/02/28 13:51:04;;;;;;;;;;;21.10;99.90;;;;;;5039761;28;19928;-61
2022/02/28 13:53:44;;;;;;;;;;;21.10;99.90;;;;;;5046126;28;20348;-60
2022/02/28 13:56:25;;;;;;;;;;;21.30;99.90;;;;;;5039751;28;19936;-62
2022/02/28 13:58:52;;;;;;;;;;;21.40;99.90;;;;;;5042913;28;19933;-61
2022/02/28 14:01:21;;;;;;;;;;;21.50;99.90;;;;;;5041919;28;19936;-65
2022/02/28 14:04:00;;;;;;;;;;;21.70;99.90;;;;;;5046133;28;19936;-69
2022/02/28 14:06:28;;;;;;;;;;;21.80;99.90;;;;;;5046180;28;20487;-62
2022/02/28 14:08:55;;;;;;;;;;;21.90;99.90;;;;;;5040356;28;19940;-66
2022/02/28 14:11:29;;;;;;;;;;;21.90;99.90;;;;;;5043837;28;20398;-67
2022/02/28 14:13:57;;;;;;;;;;;21.90;99.90;;;;;;5041659;28;19933;-67
2022/02/28 14:16:32;;;;;;;;;;;21.90;99.90;;;;;;5045418;28;20269;-69
2022/02/28 14:19:09;;;;;;;;;;;21.80;99.90;;;;;;5042262;28;20230;-66
2022/02/28 14:22:03;;;;;;;;;;;21.80;99.90;;;;;;5046513;28;19987;-65
2022/02/28 14:24:52;;;;;;;;;;;21.80;99.90;;;;;;5054683;28;19928;-68
2022/02/28 14:27:42;;;;;;;;;;;21.70;99.90;;;;;;5056993;28;19940;-67
2022/02/28 14:30:28;;;;;;;;;;;21.70;99.90;;;;;;5041279;28;19981;-68
2022/02/28 14:33:04;;;;;;;;;;;21.50;99.90;;;;;;5045586;28;20479;-63